createdAt,value
2022-12-27T00:00:40.020Z,9.16
2022-12-27T00:04:02.822Z,9.16
2022-12-27T00:07:06.726Z,9.16
2022-12-27T00:10:12.584Z,9.14
2022-12-27T00:13:15.760Z,9.14
2022-12-27T00:16:21.104Z,9.14
2022-12-27T00:19:24.394Z,9.14
2022-12-27T00:22:27.566Z,9.15
2022-12-27T00:25:30.760Z,9.15
2022-12-27T00:28:35.201Z,9.15
2022-12-27T00:31:40.263Z,9.14
2022-12-27T00:34:43.555Z,9.15
2022-12-27T00:37:46.750Z,9.15
2022-12-27T00:40:50.008Z,9.16
2022-12-27T00:43:53.584Z,9.16
2022-12-27T00:46:56.869Z,9.15
2022-12-27T00:50:00.146Z,9.14
2022-12-27T00:53:03.705Z,9.13
2022-12-27T00:56:18.257Z,9.13
2022-12-27T00:59:21.588Z,9.11
2022-12-27T01:02:26.127Z,9.07
2022-12-27T01:05:29.454Z,9.03
2022-12-27T01:08:32.748Z,8.99
2022-12-27T01:11:36.009Z,8.95
2022-12-27T01:14:39.191Z,8.92
2022-12-27T01:17:42.718Z,8.91
2022-12-27T01:20:45.934Z,8.91
2022-12-27T01:23:50.164Z,8.92
2022-12-27T01:26:53.400Z,8.94
2022-12-27T01:29:56.636Z,8.95
2022-12-27T01:32:59.828Z,8.95
2022-12-27T01:36:10.035Z,8.97
2022-12-27T01:39:13.960Z,8.98
2022-12-27T01:42:37.185Z,8.98
2022-12-27T01:45:40.599Z,8.99
2022-12-27T01:48:45.100Z,8.99
2022-12-27T01:51:48.299Z,9.00
2022-12-27T01:54:53.332Z,9.01
2022-12-27T01:58:03.219Z,9.01
2022-12-27T02:01:12.411Z,9.02
2022-12-27T02:04:19.270Z,9.02
2022-12-27T02:07:30.125Z,9.03
2022-12-27T02:10:34.742Z,9.04
2022-12-27T02:13:42.429Z,9.04
2022-12-27T02:16:47.030Z,9.02
2022-12-27T02:20:10.947Z,9.02
2022-12-27T02:23:51.634Z,9.01
2022-12-27T02:27:07.925Z,9.02
2022-12-27T02:30:13.459Z,9.01
2022-12-27T02:33:22.433Z,9.00
2022-12-27T02:36:30.356Z,9.00
2022-12-27T02:39:37.839Z,8.99
2022-12-27T02:42:59.388Z,8.98
2022-12-27T02:46:41.234Z,8.93
2022-12-27T02:50:02.806Z,8.86
2022-12-27T02:53:47.298Z,8.79
2022-12-27T02:57:13.912Z,8.74
2022-12-27T03:00:42.334Z,8.70
2022-12-27T03:03:51.143Z,8.67
2022-12-27T03:07:12.439Z,8.62
2022-12-27T03:10:43.443Z,8.57
2022-12-27T03:14:42.065Z,8.52
2022-12-27T03:17:53.355Z,8.44
2022-12-27T03:21:18.353Z,8.36
2022-12-27T03:24:45.277Z,8.29
2022-12-27T03:28:09.467Z,8.22
2022-12-27T03:31:36.983Z,8.16
2022-12-27T03:34:45.812Z,8.10
2022-12-27T03:38:04.007Z,8.05
2022-12-27T03:41:27.930Z,8.00
2022-12-27T03:44:31.274Z,7.99
2022-12-27T03:47:43.013Z,7.96
2022-12-27T03:50:57.184Z,7.96
2022-12-27T03:54:07.330Z,7.96
2022-12-27T03:57:19.774Z,7.96
2022-12-27T04:00:22.794Z,7.92
2022-12-27T04:03:26.393Z,7.87
2022-12-27T04:06:29.753Z,7.82
2022-12-27T04:09:51.614Z,7.78
2022-12-27T04:13:13.376Z,7.75
2022-12-27T04:16:35.129Z,7.73
2022-12-27T04:19:56.852Z,7.68
2022-12-27T04:23:18.592Z,7.65
2022-12-27T04:26:40.295Z,7.62
2022-12-27T04:30:02.151Z,7.56
2022-12-27T04:33:24.072Z,7.51
2022-12-27T04:36:27.310Z,7.42
2022-12-27T04:39:30.563Z,7.37
2022-12-27T04:42:52.651Z,7.34
2022-12-27T04:46:14.449Z,7.29
2022-12-27T04:49:45.442Z,7.23
2022-12-27T04:53:07.299Z,7.18
2022-12-27T04:56:10.500Z,7.11
2022-12-27T04:59:32.535Z,7.10
2022-12-27T05:02:36.411Z,7.05
2022-12-27T05:05:42.054Z,7.00
2022-12-27T05:09:03.767Z,6.95
2022-12-27T05:12:28.156Z,6.88
2022-12-27T05:15:31.372Z,6.81
2022-12-27T05:18:34.542Z,6.74
2022-12-27T05:21:38.767Z,6.67
2022-12-27T05:25:00.433Z,6.61
2022-12-27T05:28:06.318Z,6.56
2022-12-27T05:31:10.085Z,6.51
2022-12-27T05:34:13.366Z,6.48
2022-12-27T05:37:16.535Z,6.47
2022-12-27T05:40:19.763Z,6.44
2022-12-27T05:43:22.928Z,6.39
2022-12-27T05:46:26.117Z,6.36
2022-12-27T05:49:29.476Z,6.35
2022-12-27T05:52:37.571Z,6.34
2022-12-27T05:55:43.979Z,6.28
2022-12-27T05:58:47.820Z,6.25
2022-12-27T06:01:51.907Z,6.23
2022-12-27T06:04:55.243Z,6.20
2022-12-27T06:07:58.748Z,6.18
2022-12-27T06:11:13.905Z,6.18
2022-12-27T06:14:17.144Z,6.17
2022-12-27T06:17:20.355Z,6.18
2022-12-27T06:20:23.593Z,6.19
2022-12-27T06:23:26.778Z,6.17
2022-12-27T06:26:30.497Z,6.12
2022-12-27T06:29:34.385Z,6.10
2022-12-27T06:32:37.662Z,6.04
2022-12-27T06:35:40.857Z,5.98
2022-12-27T06:38:44.270Z,5.93
2022-12-27T06:41:47.511Z,5.90
2022-12-27T06:44:50.698Z,5.86
2022-12-27T06:47:53.923Z,5.79
2022-12-27T06:50:57.371Z,5.75
2022-12-27T06:54:00.618Z,5.74
2022-12-27T06:57:03.847Z,5.76
2022-12-27T07:00:08.078Z,5.79
2022-12-27T07:03:11.421Z,5.82
2022-12-27T07:06:14.723Z,5.84
2022-12-27T07:09:18.169Z,5.81
2022-12-27T07:12:23.025Z,5.80
2022-12-27T07:15:26.254Z,5.78
2022-12-27T07:18:32.996Z,5.80
2022-12-27T07:21:37.260Z,5.82
2022-12-27T07:24:40.509Z,5.79
2022-12-27T07:27:43.751Z,5.78
2022-12-27T07:30:46.956Z,5.75
2022-12-27T07:33:50.726Z,5.72
2022-12-27T07:36:53.955Z,5.71
2022-12-27T07:39:57.162Z,5.69
2022-12-27T07:43:00.465Z,5.70
2022-12-27T07:46:25.561Z,5.70
2022-12-27T07:49:28.864Z,5.69
2022-12-27T07:52:33.644Z,5.67
2022-12-27T07:55:36.917Z,5.64
2022-12-27T07:58:42.878Z,5.64
2022-12-27T08:02:04.770Z,5.63
2022-12-27T08:05:08.884Z,5.61
2022-12-27T08:08:16.001Z,5.60
2022-12-27T08:11:20.431Z,5.60
2022-12-27T08:14:23.755Z,5.63
2022-12-27T08:17:28.027Z,5.68
2022-12-27T08:20:31.599Z,5.71
2022-12-27T08:23:34.835Z,5.75
2022-12-27T08:26:38.129Z,5.83
2022-12-27T08:29:41.396Z,5.88
2022-12-27T08:32:44.620Z,5.93
2022-12-27T08:35:53.137Z,5.97
2022-12-27T08:38:56.653Z,5.99
2022-12-27T08:41:59.931Z,6.01
2022-12-27T08:45:03.604Z,6.03
2022-12-27T08:48:07.716Z,6.11
2022-12-27T08:51:13.860Z,6.23
2022-12-27T08:54:19.674Z,6.30
2022-12-27T08:57:22.977Z,6.36
2022-12-27T09:00:27.492Z,6.38
2022-12-27T09:03:31.418Z,6.41
2022-12-27T09:06:34.727Z,6.47
2022-12-27T09:09:38.127Z,6.54
2022-12-27T09:12:41.680Z,6.60
2022-12-27T09:15:45.222Z,6.65
2022-12-27T09:18:53.882Z,6.68
2022-12-27T09:21:57.140Z,6.71
2022-12-27T09:25:00.409Z,6.73
2022-12-27T09:28:04.045Z,6.80
2022-12-27T09:31:09.730Z,6.82
2022-12-27T09:34:13.155Z,6.82
2022-12-27T09:37:17.891Z,6.79
2022-12-27T09:40:21.509Z,6.82
2022-12-27T09:43:54.138Z,6.85
2022-12-27T09:47:27.132Z,6.89
2022-12-27T09:50:54.955Z,6.94
2022-12-27T09:54:37.422Z,6.94
2022-12-27T09:57:43.077Z,6.98
2022-12-27T10:00:46.720Z,6.97
2022-12-27T10:03:56.564Z,6.99
2022-12-27T10:07:25.747Z,7.00
2022-12-27T10:10:50.469Z,7.08
2022-12-27T10:14:01.591Z,7.21
2022-12-27T10:18:10.403Z,7.35
2022-12-27T10:21:27.659Z,7.45
2022-12-27T10:24:47.824Z,7.49
2022-12-27T10:27:58.645Z,7.54
2022-12-27T10:31:04.018Z,7.58
2022-12-27T10:34:15.162Z,7.63
2022-12-27T10:37:21.502Z,7.65
2022-12-27T10:40:35.762Z,7.64
2022-12-27T10:43:42.475Z,7.67
2022-12-27T10:46:52.190Z,7.75
2022-12-27T10:50:11.704Z,7.89
2022-12-27T10:53:41.232Z,8.01
2022-12-27T10:56:45.045Z,8.10
2022-12-27T11:00:14.428Z,8.07
2022-12-27T11:03:19.277Z,8.05
2022-12-27T11:06:26.242Z,8.15
2022-12-27T11:09:37.424Z,8.25
2022-12-27T11:12:55.981Z,8.33
2022-12-27T11:15:59.440Z,8.35
2022-12-27T11:19:04.353Z,8.27
2022-12-27T11:22:09.475Z,8.16
2022-12-27T11:25:14.993Z,8.06
2022-12-27T11:28:55.801Z,7.97
2022-12-27T11:32:08.116Z,7.99
2022-12-27T11:35:22.204Z,8.00
2022-12-27T11:38:29.462Z,8.06
2022-12-27T11:41:52.238Z,8.09
2022-12-27T11:48:28.735Z,8.03
2022-12-27T11:51:40.211Z,7.98
2022-12-27T11:55:21.599Z,7.95
2022-12-27T11:58:24.909Z,7.89
2022-12-27T12:01:57.018Z,7.83
2022-12-27T12:05:15.606Z,7.76
2022-12-27T12:09:23.988Z,7.71
2022-12-27T12:13:06.180Z,7.65
2022-12-27T12:16:18.225Z,7.60
2022-12-27T12:19:21.606Z,7.58
2022-12-27T12:36:26.437Z,7.82
2022-12-27T12:43:12.436Z,7.71
2022-12-27T12:46:24.660Z,7.70
2022-12-27T12:50:06.565Z,7.71
2022-12-27T12:53:29.433Z,7.67
2022-12-27T12:56:32.999Z,7.63
2022-12-27T12:59:45.071Z,7.59
2022-12-27T13:03:22.407Z,7.50
2022-12-27T13:06:28.329Z,7.40
2022-12-27T13:10:07.043Z,7.34
2022-12-27T13:13:26.589Z,7.27
2022-12-27T13:17:13.839Z,7.25
2022-12-27T13:20:48.780Z,7.23
2022-12-27T13:24:02.103Z,7.21
2022-12-27T13:27:11.453Z,7.20
2022-12-27T13:30:24.433Z,7.20
2022-12-27T13:34:08.467Z,7.17
2022-12-27T13:37:24.376Z,7.12
2022-12-27T13:40:59.716Z,7.07
2022-12-27T13:44:46.518Z,7.05
2022-12-27T13:48:23.845Z,7.02
2022-12-27T13:59:49.870Z,6.94
2022-12-27T14:03:03.704Z,6.90
2022-12-27T14:06:55.946Z,6.87
2022-12-27T14:11:31.966Z,6.86
2022-12-27T14:15:43.713Z,6.82
2022-12-27T14:19:21.967Z,6.83
2022-12-27T14:22:56.611Z,6.83
2022-12-27T14:27:17.265Z,6.82
2022-12-27T14:30:32.802Z,6.80
2022-12-27T14:34:37.404Z,6.78
2022-12-27T14:38:14.298Z,6.75
2022-12-27T14:41:20.333Z,6.71
2022-12-27T14:44:59.921Z,6.70
2022-12-27T14:48:34.858Z,6.69
2022-12-27T14:52:42.666Z,6.71
2022-12-27T14:56:07.502Z,6.69
2022-12-27T14:59:13.405Z,6.65
2022-12-27T15:02:45.436Z,6.62
2022-12-27T15:05:55.574Z,6.58
2022-12-27T15:09:32.195Z,6.54
2022-12-27T15:13:00.531Z,6.51
2022-12-27T15:16:16.011Z,6.50
2022-12-27T15:19:49.601Z,6.44
2022-12-27T15:23:05.092Z,6.42
2022-12-27T15:26:17.949Z,6.39
2022-12-27T15:29:53.455Z,6.36
2022-12-27T15:33:02.482Z,6.35
2022-12-27T15:36:21.098Z,6.32
2022-12-27T15:39:33.374Z,6.30
2022-12-27T15:42:54.178Z,6.30
2022-12-27T15:46:00.304Z,6.29
2022-12-27T15:49:15.350Z,6.29
2022-12-27T15:52:36.657Z,6.29
2022-12-27T15:56:27.116Z,6.30
2022-12-27T15:59:36.776Z,6.29
2022-12-27T16:02:49.529Z,6.31
2022-12-27T16:05:54.221Z,6.29
2022-12-27T16:09:22.106Z,6.30
2022-12-27T16:12:39.812Z,6.31
2022-12-27T16:15:50.065Z,6.30
2022-12-27T16:28:32.543Z,6.29
2022-12-27T16:35:32.940Z,6.28
2022-12-27T16:39:10.236Z,6.28
2022-12-27T16:42:27.011Z,6.29
2022-12-27T16:45:39.334Z,6.29
2022-12-27T16:49:08.595Z,6.29
2022-12-27T16:57:26.939Z,6.29
2022-12-27T17:05:15.351Z,6.40
2022-12-27T17:08:31.131Z,6.41
2022-12-27T17:12:11.282Z,6.40
2022-12-27T17:15:24.824Z,6.41
2022-12-27T17:23:44.672Z,6.41
2022-12-27T17:42:40.941Z,6.57
2022-12-27T17:45:54.912Z,6.48
2022-12-27T17:48:58.906Z,6.43
2022-12-27T17:52:21.237Z,6.40
2022-12-27T17:55:53.725Z,6.35
2022-12-27T17:59:09.271Z,6.31
2022-12-27T18:02:12.609Z,6.28
2022-12-27T18:05:22.040Z,6.24
2022-12-27T18:08:36.168Z,6.22
2022-12-27T18:11:41.802Z,6.19
2022-12-27T18:14:51.643Z,6.16
2022-12-27T18:18:05.955Z,6.14
2022-12-27T18:21:22.964Z,6.14
2022-12-27T18:24:30.112Z,6.12
2022-12-27T18:27:33.316Z,6.10
2022-12-27T18:30:42.708Z,6.10
2022-12-27T18:34:07.721Z,6.09
2022-12-27T18:37:19.343Z,6.06
2022-12-27T18:40:25.915Z,6.05
2022-12-27T18:43:29.722Z,6.04
2022-12-27T18:46:37.260Z,6.02
2022-12-27T18:49:40.644Z,5.99
2022-12-27T18:52:49.620Z,5.97
2022-12-27T18:56:05.206Z,5.96
2022-12-27T18:59:17.881Z,5.92
2022-12-27T19:02:37.196Z,5.92
2022-12-27T19:05:40.708Z,5.90
2022-12-27T19:08:53.162Z,5.88
2022-12-27T19:11:59.408Z,5.87
2022-12-27T19:15:04.341Z,5.84
2022-12-27T19:18:31.125Z,5.81
2022-12-27T19:21:37.591Z,5.78
2022-12-27T19:24:40.869Z,5.76
2022-12-27T19:28:01.090Z,5.75
2022-12-27T19:31:21.766Z,5.73
2022-12-27T19:34:29.067Z,5.72
2022-12-27T19:37:33.737Z,5.70
2022-12-27T19:40:37.016Z,5.66
2022-12-27T19:43:45.848Z,5.64
2022-12-27T19:46:49.221Z,5.61
2022-12-27T19:49:53.202Z,5.59
2022-12-27T19:52:57.174Z,5.54
2022-12-27T19:56:02.017Z,5.52
2022-12-27T19:59:05.215Z,5.50
2022-12-27T20:02:09.096Z,5.49
2022-12-27T20:05:12.917Z,5.48
2022-12-27T20:08:33.728Z,5.49
2022-12-27T20:11:37.425Z,5.48
2022-12-27T20:14:41.343Z,5.48
2022-12-27T20:17:45.392Z,5.46
2022-12-27T20:21:20.393Z,5.44
2022-12-27T20:24:23.694Z,5.41
2022-12-27T20:27:27.354Z,5.38
2022-12-27T20:30:31.299Z,5.37
2022-12-27T20:33:35.011Z,5.37
2022-12-27T20:36:38.800Z,5.37
2022-12-27T20:39:42.070Z,5.37
2022-12-27T20:42:45.626Z,5.38
2022-12-27T20:45:48.991Z,5.37
2022-12-27T20:48:53.898Z,5.36
2022-12-27T20:51:57.231Z,5.36
2022-12-27T20:55:00.610Z,5.36
2022-12-27T20:58:04.429Z,5.34
2022-12-27T21:01:15.730Z,5.35
2022-12-27T21:04:19.346Z,5.36
2022-12-27T21:07:22.808Z,5.36
2022-12-27T21:10:39.996Z,5.37
2022-12-27T21:13:45.500Z,5.37
2022-12-27T21:16:49.054Z,5.37
2022-12-27T21:19:52.671Z,5.37
2022-12-27T21:22:56.054Z,5.36
2022-12-27T21:26:25.059Z,5.36
2022-12-27T21:29:28.510Z,5.36
2022-12-27T21:32:31.745Z,5.36
2022-12-27T21:35:34.940Z,5.36
2022-12-27T21:38:38.234Z,5.36
2022-12-27T21:41:41.583Z,5.36
2022-12-27T21:44:44.811Z,5.36
2022-12-27T21:47:47.996Z,5.36
2022-12-27T21:50:51.291Z,5.38
2022-12-27T21:53:55.255Z,5.39
2022-12-27T21:56:58.423Z,5.40
2022-12-27T22:00:02.057Z,5.42
2022-12-27T22:03:08.161Z,5.43
2022-12-27T22:06:17.685Z,5.43
2022-12-27T22:09:21.006Z,5.43
2022-12-27T22:12:24.309Z,5.43
2022-12-27T22:15:27.595Z,5.42
2022-12-27T22:18:32.557Z,5.41
2022-12-27T22:21:37.388Z,5.40
2022-12-27T22:24:41.084Z,5.38
2022-12-27T22:27:44.338Z,5.37
2022-12-27T22:30:47.534Z,5.36
2022-12-27T22:33:51.815Z,5.35
2022-12-27T22:36:55.040Z,5.34
2022-12-27T22:39:58.331Z,5.33
2022-12-27T22:43:01.720Z,5.31
2022-12-27T22:46:07.273Z,5.32
2022-12-27T22:49:10.517Z,5.32
2022-12-27T22:52:13.797Z,5.30
2022-12-27T22:55:17.213Z,5.30
2022-12-27T22:58:20.456Z,5.31
2022-12-27T23:01:27.978Z,5.32
2022-12-27T23:04:31.470Z,5.30
2022-12-27T23:08:04.156Z,5.30
2022-12-27T23:11:11.475Z,5.30
2022-12-27T23:14:16.542Z,5.30
2022-12-27T23:17:19.797Z,5.29
2022-12-27T23:20:22.992Z,5.30
2022-12-27T23:23:26.613Z,5.31
2022-12-27T23:26:29.956Z,5.31
2022-12-27T23:29:33.151Z,5.31
2022-12-27T23:32:36.425Z,5.30
2022-12-27T23:35:39.641Z,5.30
2022-12-27T23:38:43.582Z,5.28
2022-12-27T23:41:46.784Z,5.29
2022-12-27T23:44:50.640Z,5.29
2022-12-27T23:47:53.821Z,5.29
2022-12-27T23:50:56.996Z,5.29
2022-12-27T23:54:00.299Z,5.29
2022-12-27T23:57:20.377Z,5.30
